createdAt,value
2019-01-08T00:01:49.609Z,15.28
2019-01-08T00:04:20.379Z,15.43
2019-01-08T00:06:50.976Z,16.00
2019-01-08T00:09:21.481Z,16.03
2019-01-08T00:11:52.124Z,15.90
2019-01-08T00:14:23.177Z,15.60
2019-01-08T00:16:53.621Z,16.53
2019-01-08T00:19:24.103Z,16.27
2019-01-08T00:21:54.560Z,16.03
2019-01-08T00:24:25.023Z,16.87
2019-01-08T00:26:55.582Z,15.95
2019-01-08T00:29:26.373Z,15.93
2019-01-08T00:31:56.828Z,16.27
2019-01-08T00:34:27.245Z,16.30
2019-01-08T00:36:57.962Z,16.50
2019-01-08T00:39:28.493Z,16.40
2019-01-08T00:41:59.266Z,14.90
2019-01-08T00:44:29.744Z,15.43
2019-01-08T00:47:00.244Z,14.87
2019-01-08T00:49:30.708Z,12.63
2019-01-08T00:52:01.161Z,13.08
2019-01-08T00:54:32.142Z,13.30
2019-01-08T00:57:02.828Z,12.95
2019-01-08T00:59:33.261Z,12.07
2019-01-08T01:02:03.718Z,12.35
2019-01-08T01:04:34.165Z,12.87
2019-01-08T01:07:04.786Z,12.73
2019-01-08T01:09:35.285Z,12.63
2019-01-08T01:12:05.766Z,12.53
2019-01-08T01:14:36.208Z,13.25
2019-01-08T01:17:06.991Z,12.07
2019-01-08T01:19:37.479Z,13.45
2019-01-08T01:22:07.963Z,13.48
2019-01-08T01:24:38.542Z,13.77
2019-01-08T01:27:08.992Z,14.50
2019-01-08T01:29:39.642Z,14.40
2019-01-08T01:32:10.124Z,14.50
2019-01-08T01:34:40.573Z,14.63
2019-01-08T01:37:11.064Z,15.43
2019-01-08T01:39:41.561Z,13.80
2019-01-08T01:42:12.016Z,15.05
2019-01-08T01:44:42.736Z,14.83
2019-01-08T01:47:13.173Z,15.90
2019-01-08T01:49:43.906Z,14.93
2019-01-08T01:52:14.437Z,16.80
2019-01-08T01:54:45.208Z,16.70
2019-01-08T01:57:16.176Z,16.07
2019-01-08T01:59:46.649Z,16.55
2019-01-08T02:02:17.169Z,16.65
2019-01-08T02:04:49.078Z,17.07
2019-01-08T02:07:19.548Z,16.25
2019-01-08T02:09:50.180Z,16.40
2019-01-08T02:12:20.673Z,19.50
2019-01-08T02:14:51.133Z,17.00
2019-01-08T02:17:21.662Z,18.80
2019-01-08T02:19:52.300Z,19.70
2019-01-08T02:22:22.774Z,19.13
2019-01-08T02:24:53.254Z,17.77
2019-01-08T02:27:23.700Z,18.85
2019-01-08T02:29:54.252Z,18.37
2019-01-08T02:32:25.016Z,17.17
2019-01-08T02:34:55.493Z,18.95
2019-01-08T02:37:25.954Z,18.10
2019-01-08T02:39:56.719Z,18.73
2019-01-08T02:42:27.171Z,19.17
2019-01-08T02:44:57.665Z,19.80
2019-01-08T02:47:28.518Z,17.97
2019-01-08T02:49:59.040Z,17.73
2019-01-08T02:52:29.819Z,18.50
2019-01-08T02:55:00.260Z,17.07
2019-01-08T02:57:30.898Z,17.83
2019-01-08T03:00:01.578Z,17.97
2019-01-08T03:02:32.300Z,17.80
2019-01-08T03:05:02.752Z,17.43
2019-01-08T03:07:33.259Z,16.03
2019-01-08T03:10:03.768Z,17.20
2019-01-08T03:12:34.272Z,17.50
2019-01-08T03:15:04.873Z,17.32
2019-01-08T03:17:36.393Z,17.75
2019-01-08T03:20:07.130Z,18.40
2019-01-08T03:22:37.593Z,18.15
2019-01-08T03:25:08.120Z,17.37
2019-01-08T03:27:38.703Z,17.48
2019-01-08T03:30:09.168Z,17.57
2019-01-08T03:32:39.635Z,17.40
2019-01-08T03:35:10.136Z,18.10
2019-01-08T03:37:40.652Z,17.53
2019-01-08T03:40:11.115Z,18.52
2019-01-08T03:42:41.589Z,18.23
2019-01-08T03:45:12.021Z,17.40
2019-01-08T03:47:55.116Z,19.63
2019-01-08T03:50:25.568Z,20.07
2019-01-08T03:52:56.142Z,19.02
2019-01-08T03:55:26.627Z,19.33
2019-01-08T03:57:57.081Z,19.23
2019-01-08T04:00:27.582Z,18.77
2019-01-08T04:02:58.033Z,18.87
2019-01-08T04:05:28.541Z,17.98
2019-01-08T04:07:59.257Z,18.52
2019-01-08T04:10:30.256Z,19.42
2019-01-08T04:13:00.722Z,19.48
2019-01-08T04:15:31.338Z,20.85
2019-01-08T04:18:01.868Z,19.23
2019-01-08T04:20:32.336Z,20.75
2019-01-08T04:23:02.822Z,21.57
2019-01-08T04:25:34.272Z,20.93
2019-01-08T04:28:04.757Z,19.82
2019-01-08T04:30:35.593Z,21.20
2019-01-08T04:33:06.105Z,20.70
2019-01-08T04:35:36.594Z,20.55
2019-01-08T04:38:07.052Z,20.10
2019-01-08T04:40:37.800Z,20.88
2019-01-08T04:43:09.457Z,21.00
2019-01-08T04:45:39.886Z,18.62
2019-01-08T04:48:10.630Z,19.70
2019-01-08T04:50:41.102Z,21.20
2019-01-08T04:53:11.561Z,20.15
2019-01-08T04:55:42.161Z,19.77
2019-01-08T04:58:12.940Z,20.93
2019-01-08T05:00:43.480Z,20.57
2019-01-08T05:03:13.966Z,20.60
2019-01-08T05:05:44.417Z,19.55
2019-01-08T05:08:15.183Z,18.50
2019-01-08T05:10:45.800Z,19.10
2019-01-08T05:13:16.356Z,19.07
2019-01-08T05:15:46.790Z,19.37
2019-01-08T05:18:17.600Z,19.07
2019-01-08T05:20:48.085Z,18.15
2019-01-08T05:23:18.597Z,19.48
2019-01-08T05:25:49.037Z,17.90
2019-01-08T05:28:19.794Z,15.67
2019-01-08T05:30:50.576Z,14.23
2019-01-08T05:33:21.042Z,13.47
2019-01-08T05:35:51.526Z,13.03
2019-01-08T05:38:21.965Z,13.23
2019-01-08T05:40:52.694Z,12.70
2019-01-08T05:43:23.290Z,14.53
2019-01-08T05:46:18.477Z,13.43
2019-01-08T05:48:49.407Z,13.07
2019-01-08T05:51:19.845Z,13.47
2019-01-08T05:53:50.645Z,13.60
2019-01-08T05:56:21.108Z,14.00
2019-01-08T05:58:51.901Z,14.77
2019-01-08T06:01:22.718Z,15.37
2019-01-08T06:03:53.292Z,13.87
2019-01-08T06:06:23.752Z,14.43
2019-01-08T06:08:56.949Z,14.47
2019-01-08T06:11:27.428Z,14.67
2019-01-08T06:13:58.259Z,14.87
2019-01-08T06:16:33.077Z,15.97
2019-01-08T06:19:03.939Z,15.10
2019-01-08T06:21:35.150Z,15.07
2019-01-08T06:24:05.778Z,16.30
2019-01-08T06:26:36.937Z,17.37
2019-01-08T06:29:07.421Z,15.07
2019-01-08T06:31:39.761Z,15.97
2019-01-08T06:34:10.488Z,15.30
2019-01-08T06:36:41.470Z,15.60
2019-01-08T06:39:12.491Z,14.83
2019-01-08T06:41:44.275Z,14.97
2019-01-08T06:44:15.061Z,16.60
2019-01-08T06:46:45.797Z,15.33
2019-01-08T06:51:46.117Z,21.63
2019-01-08T06:54:16.641Z,15.87
2019-01-08T06:56:47.200Z,14.60
2019-01-08T06:59:18.004Z,15.53
2019-01-08T07:01:49.081Z,14.33
2019-01-08T07:04:19.998Z,13.80
2019-01-08T07:06:50.697Z,13.80
2019-01-08T07:09:21.273Z,14.00
2019-01-08T07:11:52.002Z,13.23
2019-01-08T07:14:22.462Z,13.57
2019-01-08T07:16:53.465Z,13.23
2019-01-08T07:19:23.965Z,14.53
2019-01-08T07:21:54.496Z,13.73
2019-01-08T07:24:25.537Z,14.90
2019-01-08T07:26:56.658Z,14.10
2019-01-08T07:29:27.799Z,14.17
2019-01-08T07:31:58.421Z,13.73
2019-01-08T07:34:28.893Z,14.50
2019-01-08T07:36:59.363Z,14.40
2019-01-08T07:39:30.153Z,14.13
2019-01-08T07:42:00.647Z,14.50
2019-01-08T07:44:31.107Z,13.07
2019-01-08T07:47:01.558Z,14.00
2019-01-08T07:49:33.166Z,13.80
2019-01-08T07:52:03.646Z,11.43
2019-01-08T07:54:36.097Z,19.23
2019-01-08T07:57:07.432Z,14.77
2019-01-08T07:59:38.001Z,13.60
2019-01-08T08:02:08.535Z,13.07
2019-01-08T08:04:47.305Z,12.40
2019-01-08T08:07:12.144Z,11.87
2019-01-08T08:09:43.277Z,11.67
2019-01-08T08:12:13.736Z,12.07
2019-01-08T08:14:44.197Z,12.03
2019-01-08T08:17:14.950Z,11.57
2019-01-08T08:19:47.015Z,11.37
2019-01-08T08:22:17.489Z,11.03
2019-01-08T08:24:48.209Z,11.60
2019-01-08T08:27:19.272Z,10.57
2019-01-08T08:29:49.989Z,10.57
2019-01-08T08:32:20.440Z,10.53
2019-01-08T08:34:52.438Z,9.77
2019-01-08T08:37:22.857Z,10.10
2019-01-08T08:39:53.839Z,9.77
2019-01-08T08:42:24.353Z,9.33
2019-01-08T08:44:54.804Z,9.87
2019-01-08T08:47:25.783Z,10.10
2019-01-08T08:49:56.229Z,10.30
2019-01-08T08:52:26.701Z,11.17
2019-01-08T08:54:57.485Z,10.80
2019-01-08T08:57:27.937Z,10.00
2019-01-08T08:59:58.413Z,10.67
2019-01-08T09:02:29.131Z,10.77
2019-01-08T09:04:59.581Z,10.10
2019-01-08T09:07:30.109Z,11.30
2019-01-08T09:10:00.845Z,10.33
2019-01-08T09:12:31.304Z,11.07
2019-01-08T09:15:01.805Z,11.47
2019-01-08T09:17:32.237Z,10.30
2019-01-08T09:20:02.966Z,10.53
2019-01-08T09:22:33.409Z,10.40
2019-01-08T09:25:03.973Z,9.93
2019-01-08T09:27:35.486Z,9.00
2019-01-08T09:30:07.251Z,10.63
2019-01-08T09:32:38.073Z,9.40
2019-01-08T09:35:08.524Z,11.57
2019-01-08T09:37:38.955Z,10.30
2019-01-08T09:40:09.437Z,10.23
2019-01-08T09:42:39.933Z,12.10
2019-01-08T09:45:10.534Z,12.60
2019-01-08T09:47:40.989Z,10.97
2019-01-08T09:50:11.804Z,11.63
2019-01-08T09:52:42.377Z,11.70
2019-01-08T09:55:13.773Z,10.53
2019-01-08T09:57:44.232Z,12.13
2019-01-08T10:00:14.676Z,11.83
2019-01-08T10:02:45.140Z,13.63
2019-01-08T10:05:16.249Z,12.47
2019-01-08T10:07:46.690Z,12.07
2019-01-08T10:10:17.408Z,11.77
2019-01-08T10:12:47.841Z,11.80
2019-01-08T10:15:18.297Z,11.70
2019-01-08T10:17:48.728Z,12.17
2019-01-08T10:20:19.317Z,12.57
2019-01-08T10:22:50.069Z,13.17
2019-01-08T10:25:21.508Z,11.57
2019-01-08T10:27:52.251Z,12.17
2019-01-08T10:30:22.701Z,12.37
2019-01-08T10:32:53.176Z,12.70
2019-01-08T10:35:24.012Z,12.90
2019-01-08T10:37:54.549Z,12.90
2019-01-08T10:40:24.993Z,12.57
2019-01-08T10:42:55.477Z,13.20
2019-01-08T10:45:25.953Z,12.57
2019-01-08T10:47:56.469Z,13.00
2019-01-08T10:50:26.929Z,13.20
2019-01-08T10:52:57.394Z,13.53
2019-01-08T10:55:27.911Z,13.17
2019-01-08T10:57:58.768Z,12.70
2019-01-08T11:00:29.227Z,10.90
2019-01-08T11:02:59.666Z,11.53
2019-01-08T11:05:30.142Z,11.27
2019-01-08T11:08:01.550Z,11.47
2019-01-08T11:10:32.060Z,10.87
2019-01-08T11:13:02.496Z,11.23
2019-01-08T11:15:32.991Z,11.60
2019-01-08T11:18:06.173Z,10.47
2019-01-08T11:20:36.636Z,12.07
2019-01-08T11:23:07.437Z,11.97
2019-01-08T11:25:38.125Z,10.73
2019-01-08T11:28:08.577Z,9.70
2019-01-08T11:30:39.332Z,9.97
2019-01-08T11:33:09.785Z,10.30
2019-01-08T11:35:42.333Z,10.37
2019-01-08T11:38:12.759Z,10.17
2019-01-08T11:40:44.318Z,9.40
2019-01-08T11:43:14.757Z,10.70
2019-01-08T11:45:45.204Z,10.23
2019-01-08T11:48:15.922Z,10.03
2019-01-08T11:50:46.457Z,10.57
2019-01-08T11:53:16.896Z,10.23
2019-01-08T11:55:47.338Z,9.83
2019-01-08T11:58:17.776Z,9.50
2019-01-08T12:00:48.434Z,9.13
2019-01-08T12:03:18.885Z,10.90
2019-01-08T12:05:49.376Z,9.57
2019-01-08T12:08:20.922Z,9.07
2019-01-08T12:10:51.719Z,10.37
2019-01-08T12:13:22.156Z,9.70
2019-01-08T12:15:53.006Z,9.90
2019-01-08T12:18:23.458Z,10.33
2019-01-08T12:20:53.961Z,10.03
2019-01-08T12:23:24.388Z,9.77
2019-01-08T12:25:54.893Z,9.47
2019-01-08T12:28:25.354Z,9.97
2019-01-08T12:30:55.948Z,10.40
2019-01-08T12:33:27.858Z,10.07
2019-01-08T12:35:58.664Z,9.60
2019-01-08T12:38:29.176Z,8.43
2019-01-08T12:40:59.628Z,8.77
2019-01-08T12:43:30.641Z,9.50
2019-01-08T12:46:01.116Z,8.77
2019-01-08T12:48:31.549Z,9.57
2019-01-08T12:51:02.387Z,8.90
2019-01-08T12:53:32.980Z,9.83
2019-01-08T12:56:03.414Z,11.17
2019-01-08T12:58:34.183Z,8.50
2019-01-08T13:01:05.613Z,8.20
2019-01-08T13:03:36.088Z,8.10
2019-01-08T13:06:06.842Z,7.73
2019-01-08T13:08:37.278Z,8.30
2019-01-08T13:11:08.424Z,8.20
2019-01-08T13:13:39.547Z,7.97
2019-01-08T13:16:10.118Z,7.70
2019-01-08T13:18:40.940Z,7.57
2019-01-08T13:21:11.724Z,7.47
2019-01-08T13:23:42.530Z,8.70
2019-01-08T13:26:13.004Z,7.63
2019-01-08T13:28:44.293Z,7.40
2019-01-08T13:31:15.720Z,8.00
2019-01-08T13:33:46.169Z,8.20
2019-01-08T13:36:16.940Z,8.23
2019-01-08T13:38:47.390Z,8.30
2019-01-08T13:41:17.826Z,9.10
2019-01-08T13:43:48.265Z,9.63
2019-01-08T13:46:18.733Z,10.20
2019-01-08T13:48:49.184Z,9.53
2019-01-08T13:51:19.626Z,9.90
2019-01-08T13:53:50.061Z,10.13
2019-01-08T13:56:20.547Z,8.63
2019-01-08T13:58:50.996Z,8.00
2019-01-08T14:01:21.617Z,9.83
2019-01-08T14:03:52.145Z,9.37
2019-01-08T14:06:24.045Z,9.27
2019-01-08T14:08:54.499Z,8.87
2019-01-08T14:11:25.102Z,8.47
2019-01-08T14:13:55.869Z,9.10
2019-01-08T14:16:26.321Z,8.80
2019-01-08T14:18:56.862Z,7.60
2019-01-08T14:21:27.453Z,7.50
2019-01-08T14:23:57.948Z,7.27
2019-01-08T14:26:28.949Z,7.50
2019-01-08T14:28:59.457Z,7.87
2019-01-08T14:31:29.900Z,7.77
2019-01-08T14:34:01.298Z,7.07
2019-01-08T14:36:31.984Z,7.13
2019-01-08T14:39:03.484Z,6.00
2019-01-08T14:41:35.226Z,7.07
2019-01-08T14:44:05.697Z,6.97
2019-01-08T14:46:36.162Z,5.23
2019-01-08T14:49:06.684Z,5.90
2019-01-08T14:51:37.193Z,5.53
2019-01-08T14:54:07.633Z,6.20
2019-01-08T14:56:38.097Z,6.47
2019-01-08T14:59:08.575Z,6.50
2019-01-08T15:01:39.202Z,5.50
2019-01-08T15:04:09.768Z,5.80
2019-01-08T15:06:40.644Z,5.63
2019-01-08T15:09:11.105Z,5.20
2019-01-08T15:11:41.632Z,4.60
2019-01-08T15:14:14.352Z,4.73
2019-01-08T15:16:44.789Z,5.33
2019-01-08T15:19:15.225Z,4.60
2019-01-08T15:21:46.766Z,4.80
2019-01-08T15:24:17.258Z,5.60
2019-01-08T15:26:48.189Z,5.53
2019-01-08T15:29:19.500Z,5.43
2019-01-08T15:31:49.942Z,5.17
2019-01-08T15:34:20.397Z,5.57
2019-01-08T15:36:50.850Z,5.30
2019-01-08T15:39:21.770Z,5.23
2019-01-08T15:41:52.684Z,5.77
2019-01-08T15:44:23.200Z,5.27
2019-01-08T15:46:54.006Z,5.80
2019-01-08T15:49:24.552Z,5.57
2019-01-08T15:51:55.356Z,5.90
2019-01-08T15:54:25.821Z,6.20
2019-01-08T15:56:56.588Z,5.43
2019-01-08T15:59:27.065Z,5.73
2019-01-08T16:01:57.560Z,5.47
2019-01-08T16:04:27.996Z,4.87
2019-01-08T16:06:58.962Z,5.00
2019-01-08T16:09:29.405Z,5.23
2019-01-08T16:11:59.885Z,5.17
2019-01-08T16:14:31.460Z,5.43
2019-01-08T16:17:02.217Z,5.50
2019-01-08T16:19:32.665Z,5.50
2019-01-08T16:22:03.116Z,5.80
2019-01-08T16:24:33.878Z,5.73
2019-01-08T16:27:04.301Z,6.23
2019-01-08T16:29:34.716Z,5.93
2019-01-08T16:32:05.156Z,5.90
2019-01-08T16:34:35.594Z,5.53
2019-01-08T16:37:06.136Z,5.90
2019-01-08T16:39:36.580Z,5.53
2019-01-08T16:42:07.004Z,5.10
2019-01-08T16:44:37.594Z,5.57
2019-01-08T16:47:08.144Z,4.47
2019-01-08T16:49:38.745Z,4.77
2019-01-08T16:52:10.193Z,4.97
2019-01-08T16:54:40.809Z,4.30
2019-01-08T16:57:11.232Z,3.77
2019-01-08T16:59:43.093Z,4.33
2019-01-08T17:02:13.585Z,4.50
2019-01-08T17:04:44.059Z,4.60
2019-01-08T17:07:15.141Z,4.07
2019-01-08T17:09:45.566Z,4.03
2019-01-08T17:12:17.523Z,3.73
2019-01-08T17:14:47.989Z,3.70
2019-01-08T17:17:18.425Z,3.57
2019-01-08T17:19:55.700Z,3.07
2019-01-08T17:22:26.126Z,3.30
2019-01-08T17:24:56.536Z,2.80
2019-01-08T17:27:27.348Z,3.40
2019-01-08T17:29:57.939Z,3.22
2019-01-08T17:32:28.451Z,2.73
2019-01-08T17:34:59.192Z,2.90
2019-01-08T17:37:29.684Z,3.10
2019-01-08T17:40:24.274Z,3.40
2019-01-08T17:43:33.648Z,2.77
2019-01-08T17:46:06.541Z,2.50
2019-01-08T17:48:37.343Z,2.23
2019-01-08T17:51:07.840Z,2.57
2019-01-08T17:53:38.296Z,2.60
2019-01-08T17:56:08.757Z,2.80
2019-01-08T17:58:42.138Z,2.97
2019-01-08T18:01:21.862Z,2.40
2019-01-08T18:03:52.410Z,2.20
2019-01-08T18:06:22.875Z,2.67
2019-01-08T18:08:53.336Z,2.77
2019-01-08T18:11:24.169Z,2.70
2019-01-08T18:13:54.668Z,2.90
2019-01-08T18:16:56.283Z,2.97
2019-01-08T18:19:26.733Z,2.80
2019-01-08T18:21:57.221Z,2.80
2019-01-08T18:24:27.732Z,2.60
2019-01-08T18:26:58.249Z,3.47
2019-01-08T18:29:29.203Z,3.23
2019-01-08T18:31:59.718Z,2.70
2019-01-08T18:34:30.174Z,2.60
2019-01-08T18:37:00.616Z,2.63
2019-01-08T18:39:31.396Z,2.87
2019-01-08T18:42:01.851Z,3.13
2019-01-08T18:44:32.336Z,2.87
2019-01-08T18:47:02.924Z,3.20
2019-01-08T18:49:33.645Z,3.30
2019-01-08T18:52:04.298Z,3.33
2019-01-08T18:54:34.746Z,3.10
2019-01-08T18:57:05.216Z,3.30
2019-01-08T18:59:35.690Z,2.47
2019-01-08T19:02:06.477Z,2.87
2019-01-08T19:04:44.912Z,2.93
2019-01-08T19:07:21.346Z,2.60
2019-01-08T19:10:01.205Z,2.87
2019-01-08T19:12:32.018Z,3.03
2019-01-08T19:15:02.577Z,3.00
2019-01-08T19:17:33.317Z,2.70
2019-01-08T19:22:42.748Z,2.83
2019-01-08T19:25:13.533Z,3.00
2019-01-08T19:27:44.102Z,3.83
2019-01-08T19:30:14.562Z,5.13
2019-01-08T19:32:45.019Z,3.10
2019-01-08T19:35:15.597Z,3.30
2019-01-08T19:37:46.157Z,2.90
2019-01-08T19:40:16.916Z,2.77
2019-01-08T19:42:48.390Z,2.90
2019-01-08T19:49:15.633Z,2.43
2019-01-08T19:55:19.973Z,3.20
2019-01-08T19:57:50.595Z,2.60
2019-01-08T20:00:21.731Z,2.80
2019-01-08T20:02:52.530Z,2.90
2019-01-08T20:05:23.580Z,2.53
2019-01-08T20:07:54.524Z,2.93
2019-01-08T20:10:24.960Z,2.80
2019-01-08T20:12:55.564Z,2.63
2019-01-08T20:15:26.360Z,3.00
2019-01-08T20:17:56.882Z,2.77
2019-01-08T20:20:27.453Z,2.73
2019-01-08T20:22:58.356Z,3.13
2019-01-08T20:25:28.985Z,2.80
2019-01-08T20:27:59.576Z,3.00
2019-01-08T20:30:30.089Z,2.57
2019-01-08T20:33:00.550Z,2.53
2019-01-08T20:35:31.001Z,2.83
2019-01-08T20:38:01.553Z,2.93
2019-01-08T20:40:32.304Z,2.67
2019-01-08T20:43:02.757Z,2.83
2019-01-08T20:45:33.221Z,2.83
2019-01-08T20:48:03.673Z,2.90
2019-01-08T20:50:34.160Z,2.77
2019-01-08T20:53:10.460Z,2.57
2019-01-08T20:55:41.032Z,2.53
2019-01-08T20:58:11.473Z,2.83
2019-01-08T21:00:42.694Z,2.57
2019-01-08T21:03:13.661Z,3.40
2019-01-08T21:06:18.020Z,2.87
2019-01-08T21:09:23.030Z,2.77
2019-01-08T21:16:02.252Z,2.50
2019-01-08T21:18:33.142Z,2.77
2019-01-08T21:21:04.107Z,3.00
2019-01-08T21:23:38.965Z,2.70
2019-01-08T21:26:09.400Z,2.70
2019-01-08T21:28:40.187Z,3.40
2019-01-08T21:31:12.138Z,2.53
2019-01-08T21:33:43.363Z,3.00
2019-01-08T21:36:14.020Z,3.10
2019-01-08T21:38:44.578Z,2.83
2019-01-08T21:41:15.309Z,2.87
2019-01-08T21:43:46.708Z,3.10
2019-01-08T21:46:17.345Z,3.37
2019-01-08T21:48:47.858Z,3.77
2019-01-08T21:51:18.298Z,3.30
2019-01-08T21:53:49.101Z,2.87
2019-01-08T21:56:19.609Z,2.90
2019-01-08T21:59:03.377Z,2.90
2019-01-08T22:01:34.102Z,2.90
2019-01-08T22:04:04.684Z,2.60
2019-01-08T22:06:35.224Z,3.80
2019-01-08T22:09:06.832Z,2.70
2019-01-08T22:11:37.565Z,3.00
2019-01-08T22:14:08.117Z,3.37
2019-01-08T22:16:38.577Z,2.80
2019-01-08T22:19:09.012Z,2.70
2019-01-08T22:21:40.057Z,3.00
2019-01-08T22:24:10.497Z,2.57
2019-01-08T22:26:40.949Z,2.60
2019-01-08T22:29:11.372Z,2.27
2019-01-08T22:31:41.920Z,3.13
2019-01-08T22:34:12.423Z,2.97
2019-01-08T22:36:52.929Z,3.10
2019-01-08T22:39:24.822Z,2.70
2019-01-08T22:41:56.520Z,2.73
2019-01-08T22:44:27.423Z,2.37
2019-01-08T22:46:57.867Z,2.40
2019-01-08T22:49:28.301Z,2.60
2019-01-08T22:51:58.777Z,2.70
2019-01-08T22:54:29.305Z,2.40
2019-01-08T22:56:59.732Z,2.60
2019-01-08T22:59:31.665Z,2.80
2019-01-08T23:02:02.144Z,3.20
2019-01-08T23:04:32.656Z,2.77
2019-01-08T23:07:09.006Z,2.60
2019-01-08T23:09:45.565Z,2.63
2019-01-08T23:12:17.715Z,2.73
2019-01-08T23:14:48.746Z,3.10
2019-01-08T23:17:19.338Z,2.97
2019-01-08T23:19:55.861Z,3.00
2019-01-08T23:22:28.341Z,3.00
2019-01-08T23:24:59.273Z,3.37
2019-01-08T23:27:29.721Z,2.67
2019-01-08T23:30:00.976Z,3.07
2019-01-08T23:32:31.638Z,2.87
2019-01-08T23:35:08.358Z,3.10
2019-01-08T23:37:38.857Z,2.87
2019-01-08T23:40:09.731Z,3.70
2019-01-08T23:42:40.843Z,2.90
2019-01-08T23:45:11.329Z,3.30
2019-01-08T23:47:42.054Z,3.10
2019-01-08T23:50:12.485Z,3.23
2019-01-08T23:53:05.877Z,3.10
2019-01-08T23:55:50.898Z,3.00
2019-01-08T23:58:21.839Z,3.23
